createdAt,value
2022-08-28T00:01:15.635Z,9.23
2022-08-28T00:06:20.052Z,10.18
2022-08-28T00:11:25.869Z,9.50
2022-08-28T00:16:30.442Z,8.13
2022-08-28T00:21:37.165Z,10.15
2022-08-28T00:27:00.441Z,9.88
2022-08-28T00:32:05.735Z,8.60
2022-08-28T00:37:10.197Z,8.77
2022-08-28T00:42:15.892Z,9.47
2022-08-28T00:47:20.771Z,10.18
2022-08-28T00:52:27.596Z,10.02
2022-08-28T00:57:38.546Z,9.80
2022-08-28T01:02:43.903Z,8.40
2022-08-28T01:07:50.939Z,9.47
2022-08-28T01:12:58.024Z,9.48
2022-08-28T01:18:08.519Z,9.00
2022-08-28T01:23:26.060Z,8.85
2022-08-28T01:28:32.463Z,8.82
2022-08-28T01:33:37.015Z,9.88
2022-08-28T01:38:50.721Z,10.45
2022-08-28T01:43:57.238Z,10.90
2022-08-28T01:49:01.851Z,10.23
2022-08-28T01:54:07.748Z,10.30
2022-08-28T01:59:16.453Z,9.40
2022-08-28T02:04:21.195Z,10.67
2022-08-28T02:09:36.548Z,10.60
2022-08-28T02:14:43.335Z,10.63
2022-08-28T02:19:47.776Z,11.60
2022-08-28T02:24:52.244Z,10.03
2022-08-28T02:29:58.760Z,11.77
2022-08-28T02:35:03.332Z,10.48
2022-08-28T02:40:14.399Z,10.32
2022-08-28T02:45:21.835Z,9.73
2022-08-28T02:50:26.826Z,9.95
2022-08-28T02:55:34.164Z,10.03
2022-08-28T03:00:42.037Z,10.10
2022-08-28T03:05:46.623Z,11.30
2022-08-28T03:10:51.336Z,11.00
2022-08-28T03:15:58.712Z,9.10
2022-08-28T03:21:03.258Z,9.30
2022-08-28T03:26:11.409Z,8.70
2022-08-28T03:31:21.480Z,8.70
2022-08-28T03:36:29.155Z,8.80
2022-08-28T03:41:34.861Z,10.80
2022-08-28T03:46:40.867Z,9.13
2022-08-28T03:51:45.267Z,8.38
2022-08-28T03:56:49.737Z,7.63
2022-08-28T04:01:55.552Z,8.67
2022-08-28T04:07:01.469Z,8.53
2022-08-28T04:12:09.411Z,8.57
2022-08-28T04:17:15.145Z,8.60
2022-08-28T04:22:20.070Z,8.30
2022-08-28T04:27:28.263Z,8.13
2022-08-28T04:32:35.425Z,8.07
2022-08-28T04:37:40.673Z,8.50
2022-08-28T04:42:47.540Z,7.57
2022-08-28T04:47:53.732Z,8.00
2022-08-28T04:52:58.421Z,8.10
2022-08-28T04:58:02.985Z,7.53
2022-08-28T05:03:11.368Z,8.40
2022-08-28T05:08:19.398Z,8.88
2022-08-28T05:13:27.228Z,9.77
2022-08-28T05:18:33.328Z,9.88
2022-08-28T05:23:37.699Z,8.73
2022-08-28T05:28:42.283Z,7.57
2022-08-28T05:33:49.849Z,8.63
2022-08-28T05:38:59.042Z,7.30
2022-08-28T05:44:07.751Z,8.67
2022-08-28T05:49:15.741Z,8.73
2022-08-28T05:54:20.621Z,9.50
2022-08-28T05:59:25.489Z,8.82
2022-08-28T06:04:31.631Z,9.25
2022-08-28T06:09:38.248Z,8.68
2022-08-28T06:14:42.682Z,8.05
2022-08-28T06:19:50.552Z,9.13
2022-08-28T06:24:55.042Z,9.43
2022-08-28T06:29:59.988Z,8.15
2022-08-28T06:35:07.016Z,7.28
2022-08-28T06:40:11.878Z,8.65
2022-08-28T06:45:16.437Z,9.83
2022-08-28T06:50:22.564Z,8.77
2022-08-28T06:55:27.118Z,7.95
2022-08-28T07:00:32.069Z,8.70
2022-08-28T07:05:38.040Z,8.65
2022-08-28T07:10:42.777Z,7.43
2022-08-28T07:15:49.281Z,6.22
2022-08-28T07:21:00.468Z,6.00
2022-08-28T07:26:06.836Z,5.85
2022-08-28T07:31:15.465Z,5.78
2022-08-28T07:36:29.298Z,5.63
2022-08-28T07:41:38.998Z,6.20
2022-08-28T07:46:45.267Z,5.60
2022-08-28T07:51:53.831Z,5.30
2022-08-28T07:56:59.623Z,8.63
2022-08-28T08:02:04.631Z,6.23
2022-08-28T08:07:14.371Z,6.43
2022-08-28T08:12:18.870Z,9.57
2022-08-28T08:17:23.563Z,6.60
2022-08-28T08:22:29.398Z,7.43
2022-08-28T08:27:38.779Z,9.02
2022-08-28T08:32:45.426Z,8.18
2022-08-28T08:37:51.289Z,6.97
2022-08-28T08:42:58.084Z,6.97
2022-08-28T08:48:03.405Z,7.93
2022-08-28T08:53:32.597Z,8.10
2022-08-28T08:58:44.350Z,6.95
2022-08-28T09:04:08.479Z,6.50
2022-08-28T09:09:29.385Z,6.87
2022-08-28T09:14:55.328Z,7.07
2022-08-28T09:20:00.680Z,5.95
2022-08-28T09:25:13.571Z,29.60
2022-08-28T09:30:31.809Z,6.10
2022-08-28T09:35:38.661Z,6.47
2022-08-28T09:41:02.493Z,7.23
2022-08-28T09:54:46.944Z,6.57
2022-08-28T10:00:31.824Z,7.05
2022-08-28T10:05:45.333Z,5.47
2022-08-28T10:25:54.165Z,6.65
2022-08-28T10:39:07.693Z,5.20
2022-08-28T10:45:31.127Z,4.97
2022-08-28T10:51:17.163Z,4.87
2022-08-28T10:56:27.416Z,5.15
2022-08-28T11:01:37.943Z,5.70
2022-08-28T11:06:51.152Z,4.20
2022-08-28T11:12:02.045Z,4.65
2022-08-28T11:17:14.334Z,4.70
2022-08-28T11:28:47.286Z,4.97
2022-08-28T11:33:55.512Z,4.72
2022-08-28T11:39:20.553Z,4.10
2022-08-28T11:44:41.500Z,3.83
2022-08-28T11:49:47.577Z,3.92
2022-08-28T11:55:08.513Z,3.45
2022-08-28T12:00:23.600Z,3.97
2022-08-28T12:05:46.788Z,3.80
2022-08-28T12:12:48.431Z,4.27
2022-08-28T12:19:05.268Z,4.50
2022-08-28T12:24:24.808Z,4.50
2022-08-28T12:29:36.399Z,5.30
2022-08-28T12:35:07.555Z,6.97
2022-08-28T12:40:23.284Z,7.32
2022-08-28T12:45:35.201Z,7.47
2022-08-28T12:50:41.405Z,6.60
2022-08-28T12:55:48.165Z,6.45
2022-08-28T13:00:59.792Z,6.85
2022-08-28T13:06:09.314Z,5.80
2022-08-28T13:11:20.533Z,4.18
2022-08-28T13:16:41.989Z,4.20
2022-08-28T13:22:00.390Z,3.70
2022-08-28T13:27:18.973Z,3.42
2022-08-28T13:32:24.387Z,3.50
2022-08-28T13:37:48.404Z,3.75
2022-08-28T13:43:01.340Z,3.47
2022-08-28T13:48:06.413Z,3.60
2022-08-28T13:53:11.321Z,3.72
2022-08-28T13:58:19.037Z,3.22
2022-08-28T14:03:39.191Z,3.70
2022-08-28T14:08:45.258Z,3.50
2022-08-28T14:13:55.515Z,3.40
2022-08-28T14:19:04.657Z,3.30
2022-08-28T14:24:09.788Z,3.05
2022-08-28T14:29:19.878Z,3.10
2022-08-28T14:34:29.363Z,3.10
2022-08-28T14:39:34.999Z,3.00
2022-08-28T14:44:44.988Z,3.20
2022-08-28T14:49:49.282Z,3.60
2022-08-28T14:54:53.609Z,3.40
2022-08-28T14:59:59.205Z,3.00
2022-08-28T15:05:03.585Z,3.40
2022-08-28T15:10:11.509Z,3.20
2022-08-28T15:15:18.642Z,3.40
2022-08-28T15:20:23.713Z,3.30
2022-08-28T15:25:28.124Z,3.63
2022-08-28T15:30:34.702Z,3.83
2022-08-28T15:35:39.239Z,4.40
2022-08-28T15:41:00.921Z,3.90
2022-08-28T15:46:14.454Z,3.90
2022-08-28T15:51:23.886Z,3.75
2022-08-28T15:56:30.160Z,4.10
2022-08-28T16:01:35.884Z,3.53
2022-08-28T16:06:41.781Z,3.90
2022-08-28T16:11:46.139Z,4.45
2022-08-28T16:16:51.731Z,4.60
2022-08-28T16:21:57.372Z,4.22
2022-08-28T16:27:01.810Z,5.15
2022-08-28T16:32:09.753Z,5.15
2022-08-28T16:37:20.960Z,4.60
2022-08-28T16:42:28.654Z,5.18
2022-08-28T16:47:37.960Z,6.03
2022-08-28T16:52:42.299Z,5.70
2022-08-28T16:57:46.649Z,5.63
2022-08-28T17:02:52.415Z,6.87
2022-08-28T17:07:59.974Z,5.75
2022-08-28T17:13:04.369Z,5.95
2022-08-28T17:18:12.893Z,6.30
2022-08-28T17:23:17.996Z,5.90
2022-08-28T17:28:22.799Z,6.90
2022-08-28T17:33:28.786Z,9.27
2022-08-28T17:38:33.357Z,6.85
2022-08-28T17:44:08.547Z,6.13
2022-08-28T17:50:34.995Z,6.47
2022-08-28T18:02:36.225Z,5.90
2022-08-28T18:07:42.206Z,6.78
2022-08-28T18:12:47.752Z,6.82
2022-08-28T18:17:52.147Z,6.10
2022-08-28T18:22:57.932Z,7.30
2022-08-28T18:28:03.148Z,6.75
2022-08-28T18:33:08.785Z,6.78
2022-08-28T18:38:16.642Z,6.53
2022-08-28T18:43:22.458Z,7.07
2022-08-28T18:48:27.014Z,7.28
2022-08-28T18:53:32.906Z,7.28
2022-08-28T18:58:37.346Z,7.67
2022-08-28T19:03:41.569Z,7.88
2022-08-28T19:08:47.299Z,7.57
2022-08-28T19:13:52.165Z,7.38
2022-08-28T19:18:56.642Z,7.47
2022-08-28T19:24:04.505Z,6.85
2022-08-28T19:29:09.047Z,7.40
2022-08-28T19:34:14.266Z,7.15
2022-08-28T19:39:20.297Z,6.90
2022-08-28T19:44:24.595Z,6.50
2022-08-28T19:49:29.700Z,8.02
2022-08-28T19:54:38.502Z,6.30
2022-08-28T19:59:43.298Z,7.80
2022-08-28T20:04:49.589Z,6.93
2022-08-28T20:09:56.410Z,6.87
2022-08-28T20:15:03.749Z,8.85
2022-08-28T20:20:10.465Z,9.50
2022-08-28T20:25:18.567Z,9.05
2022-08-28T20:30:23.329Z,10.23
2022-08-28T20:35:28.046Z,8.70
2022-08-28T20:40:34.204Z,8.03
2022-08-28T20:45:38.771Z,9.57
2022-08-28T20:50:43.266Z,9.70
2022-08-28T20:55:50.570Z,9.90
2022-08-28T21:00:59.401Z,9.50
2022-08-28T21:06:04.066Z,9.65
2022-08-28T21:11:09.939Z,9.13
2022-08-28T21:16:16.066Z,11.93
2022-08-28T21:21:21.065Z,10.68
2022-08-28T21:26:28.431Z,9.50
2022-08-28T21:31:33.130Z,12.10
2022-08-28T21:36:39.100Z,10.40
2022-08-28T21:41:44.960Z,9.80
2022-08-28T21:46:49.315Z,10.10
2022-08-28T21:51:53.830Z,9.93
2022-08-28T21:57:00.916Z,9.38
2022-08-28T22:02:06.163Z,11.07
2022-08-28T22:07:12.034Z,10.77
2022-08-28T22:12:17.681Z,10.10
2022-08-28T22:17:22.013Z,11.53
2022-08-28T22:22:44.168Z,9.80
2022-08-28T22:27:49.881Z,10.50
2022-08-28T22:32:54.784Z,10.15
2022-08-28T22:37:59.331Z,11.13
2022-08-28T22:43:05.201Z,10.30
2022-08-28T22:48:10.285Z,9.90
2022-08-28T22:53:16.935Z,10.43
2022-08-28T22:58:22.688Z,10.35
2022-08-28T23:03:27.359Z,8.73
2022-08-28T23:08:33.984Z,11.23
2022-08-28T23:13:41.119Z,10.10
2022-08-28T23:19:07.334Z,11.85
2022-08-28T23:24:10.440Z,10.80
2022-08-28T23:29:16.351Z,11.27
2022-08-28T23:34:20.908Z,12.02
2022-08-28T23:39:25.454Z,11.68
2022-08-28T23:44:34.065Z,11.30
2022-08-28T23:49:42.832Z,10.95
2022-08-28T23:54:47.593Z,11.45
2022-08-28T23:59:53.491Z,11.60
